sensor_id;sensor_type;location;lat;lon;timestamp;pressure;altitude;pressure_sealevel;temperature;humidity
52653;BME280;39353;42.864;12.014;2022-12-24T00:01:22;97518.89;;;20.93;55.16
52653;BME280;39353;42.864;12.014;2022-12-24T00:03:49;97519.64;;;20.90;55.11
52653;BME280;39353;42.864;12.014;2022-12-24T00:06:20;97523.13;;;20.89;55.21
52653;BME280;39353;42.864;12.014;2022-12-24T00:09:02;97535.28;;;20.86;55.24
52653;BME280;39353;42.864;12.014;2022-12-24T00:11:30;97533.48;;;20.84;55.33
52653;BME280;39353;42.864;12.014;2022-12-24T00:14:10;97527.21;;;20.79;55.37
52653;BME280;39353;42.864;12.014;2022-12-24T00:16:52;97515.61;;;20.77;55.40
52653;BME280;39353;42.864;12.014;2022-12-24T00:19:34;97510.20;;;20.75;55.41
52653;BME280;39353;42.864;12.014;2022-12-24T00:22:15;97509.09;;;20.73;55.33
52653;BME280;39353;42.864;12.014;2022-12-24T00:24:42;97514.17;;;20.72;55.61
52653;BME280;39353;42.864;12.014;2022-12-24T00:27:25;97516.09;;;20.68;55.54
52653;BME280;39353;42.864;12.014;2022-12-24T00:29:54;97524.13;;;20.65;55.58
52653;BME280;39353;42.864;12.014;2022-12-24T00:32:35;97528.42;;;20.63;55.66
52653;BME280;39353;42.864;12.014;2022-12-24T00:35:17;97534.86;;;20.61;55.66
52653;BME280;39353;42.864;12.014;2022-12-24T00:37:48;97543.79;;;20.61;55.70
52653;BME280;39353;42.864;12.014;2022-12-24T00:40:29;97542.39;;;20.60;55.81
52653;BME280;39353;42.864;12.014;2022-12-24T00:42:57;97538.73;;;20.58;55.92
52653;BME280;39353;42.864;12.014;2022-12-24T00:45:38;97534.23;;;20.57;55.81
52653;BME280;39353;42.864;12.014;2022-12-24T00:48:06;97532.97;;;20.55;55.88
52653;BME280;39353;42.864;12.014;2022-12-24T00:50:33;97542.03;;;20.54;55.88
52653;BME280;39353;42.864;12.014;2022-12-24T00:53:00;97537.58;;;20.52;55.87
52653;BME280;39353;42.864;12.014;2022-12-24T00:55:27;97533.45;;;20.50;55.94
52653;BME280;39353;42.864;12.014;2022-12-24T00:58:09;97522.15;;;20.47;56.02
52653;BME280;39353;42.864;12.014;2022-12-24T01:00:50;97527.60;;;20.46;56.03
52653;BME280;39353;42.864;12.014;2022-12-24T01:03:19;97530.98;;;20.44;55.94
52653;BME280;39353;42.864;12.014;2022-12-24T01:05:47;97531.96;;;20.43;55.94
52653;BME280;39353;42.864;12.014;2022-12-24T01:08:14;97536.24;;;20.41;56.15
52653;BME280;39353;42.864;12.014;2022-12-24T01:10:41;97538.11;;;20.38;56.04
52653;BME280;39353;42.864;12.014;2022-12-24T01:13:09;97530.88;;;20.37;56.15
52653;BME280;39353;42.864;12.014;2022-12-24T01:15:50;97521.04;;;20.35;56.13
52653;BME280;39353;42.864;12.014;2022-12-24T01:18:18;97512.32;;;20.35;56.32
52653;BME280;39353;42.864;12.014;2022-12-24T01:21:02;97507.27;;;20.32;56.29
52653;BME280;39353;42.864;12.014;2022-12-24T01:23:44;97497.01;;;20.30;56.12
52653;BME280;39353;42.864;12.014;2022-12-24T01:26:25;97478.11;;;20.29;56.35
52653;BME280;39353;42.864;12.014;2022-12-24T01:28:52;97469.64;;;20.28;56.35
52653;BME280;39353;42.864;12.014;2022-12-24T01:31:21;97473.21;;;20.28;56.33
52653;BME280;39353;42.864;12.014;2022-12-24T01:34:02;97469.41;;;20.26;56.26
52653;BME280;39353;42.864;12.014;2022-12-24T01:36:43;97460.55;;;20.25;56.27
52653;BME280;39353;42.864;12.014;2022-12-24T01:39:10;97456.73;;;20.25;56.28
52653;BME280;39353;42.864;12.014;2022-12-24T01:41:51;97458.98;;;20.23;56.24
52653;BME280;39353;42.864;12.014;2022-12-24T01:44:53;97457.17;;;20.22;56.30
52653;BME280;39353;42.864;12.014;2022-12-24T01:47:28;97460.12;;;20.21;56.27
52653;BME280;39353;42.864;12.014;2022-12-24T01:50:16;97472.91;;;20.19;56.48
52653;BME280;39353;42.864;12.014;2022-12-24T01:53:01;97472.30;;;20.19;56.37
52653;BME280;39353;42.864;12.014;2022-12-24T01:55:30;97466.64;;;20.19;56.14
52653;BME280;39353;42.864;12.014;2022-12-24T01:57:59;97470.95;;;20.18;56.28
52653;BME280;39353;42.864;12.014;2022-12-24T02:00:29;97470.77;;;20.17;56.39
52653;BME280;39353;42.864;12.014;2022-12-24T02:02:58;97476.25;;;20.17;56.41
52653;BME280;39353;42.864;12.014;2022-12-24T02:05:39;97487.70;;;20.15;56.50
52653;BME280;39353;42.864;12.014;2022-12-24T02:08:23;97489.38;;;20.14;56.37
52653;BME280;39353;42.864;12.014;2022-12-24T02:11:13;97486.02;;;20.12;56.43
52653;BME280;39353;42.864;12.014;2022-12-24T02:13:49;97503.06;;;20.12;56.50
52653;BME280;39353;42.864;12.014;2022-12-24T02:17:21;97503.45;;;20.12;56.32
52653;BME280;39353;42.864;12.014;2022-12-24T02:25:34;97506.88;;;20.08;56.56
52653;BME280;39353;42.864;12.014;2022-12-24T02:31:55;97490.42;;;20.04;56.75
52653;BME280;39353;42.864;12.014;2022-12-24T02:37:33;97491.69;;;20.02;56.71
52653;BME280;39353;42.864;12.014;2022-12-24T02:40:18;97500.44;;;20.02;56.63
52653;BME280;39353;42.864;12.014;2022-12-24T02:43:10;97515.41;;;20.02;56.80
52653;BME280;39353;42.864;12.014;2022-12-24T02:46:00;97523.45;;;20.01;56.78
52653;BME280;39353;42.864;12.014;2022-12-24T02:48:31;97530.39;;;20.00;56.75
52653;BME280;39353;42.864;12.014;2022-12-24T02:51:07;97525.91;;;19.99;56.68
52653;BME280;39353;42.864;12.014;2022-12-24T02:53:37;97520.58;;;20.00;56.89
52653;BME280;39353;42.864;12.014;2022-12-24T03:00:04;97530.70;;;19.98;56.73
52653;BME280;39353;42.864;12.014;2022-12-24T03:07:59;97504.95;;;19.95;56.82
52653;BME280;39353;42.864;12.014;2022-12-24T03:13:16;97490.80;;;19.92;56.89
52653;BME280;39353;42.864;12.014;2022-12-24T03:15:59;97494.38;;;19.91;56.86
52653;BME280;39353;42.864;12.014;2022-12-24T03:18:30;97489.51;;;19.91;56.90
52653;BME280;39353;42.864;12.014;2022-12-24T03:21:26;97502.96;;;19.91;56.75
52653;BME280;39353;42.864;12.014;2022-12-24T03:23:56;97504.23;;;19.91;56.84
52653;BME280;39353;42.864;12.014;2022-12-24T03:26:29;97499.37;;;19.91;56.91
52653;BME280;39353;42.864;12.014;2022-12-24T03:29:13;97515.16;;;19.89;56.88
52653;BME280;39353;42.864;12.014;2022-12-24T03:31:50;97530.13;;;19.89;56.87
52653;BME280;39353;42.864;12.014;2022-12-24T03:34:32;97532.37;;;19.88;56.98
52653;BME280;39353;42.864;12.014;2022-12-24T03:36:59;97525.77;;;19.88;56.91
52653;BME280;39353;42.864;12.014;2022-12-24T03:39:28;97514.73;;;19.87;57.00
52653;BME280;39353;42.864;12.014;2022-12-24T03:41:56;97495.38;;;19.87;57.01
52653;BME280;39353;42.864;12.014;2022-12-24T03:44:36;97493.25;;;19.85;57.05
52653;BME280;39353;42.864;12.014;2022-12-24T03:47:04;97500.16;;;19.85;56.92
52653;BME280;39353;42.864;12.014;2022-12-24T03:49:32;97516.72;;;19.83;56.94
52653;BME280;39353;42.864;12.014;2022-12-24T03:52:13;97521.95;;;19.82;56.85
52653;BME280;39353;42.864;12.014;2022-12-24T03:54:41;97521.50;;;19.82;57.07
52653;BME280;39353;42.864;12.014;2022-12-24T03:57:22;97511.92;;;19.80;57.14
52653;BME280;39353;42.864;12.014;2022-12-24T04:00:04;97505.27;;;19.79;57.21
52653;BME280;39353;42.864;12.014;2022-12-24T04:02:53;97496.89;;;19.78;57.05
52653;BME280;39353;42.864;12.014;2022-12-24T04:05:22;97487.60;;;19.77;57.18
52653;BME280;39353;42.864;12.014;2022-12-24T04:07:49;97489.23;;;19.77;57.12
52653;BME280;39353;42.864;12.014;2022-12-24T04:10:30;97492.42;;;19.76;57.15
52653;BME280;39353;42.864;12.014;2022-12-24T04:13:11;97511.23;;;19.76;57.25
52653;BME280;39353;42.864;12.014;2022-12-24T04:15:58;97519.06;;;19.75;57.26
52653;BME280;39353;42.864;12.014;2022-12-24T04:18:27;97532.80;;;19.76;57.24
52653;BME280;39353;42.864;12.014;2022-12-24T04:20:54;97539.89;;;19.74;57.12
52653;BME280;39353;42.864;12.014;2022-12-24T04:23:22;97544.75;;;19.74;57.16
52653;BME280;39353;42.864;12.014;2022-12-24T04:26:08;97540.70;;;19.73;57.26
52653;BME280;39353;42.864;12.014;2022-12-24T04:28:37;97550.29;;;19.73;57.40
52653;BME280;39353;42.864;12.014;2022-12-24T04:31:07;97552.23;;;19.72;57.24
52653;BME280;39353;42.864;12.014;2022-12-24T04:33:50;97555.38;;;19.72;57.34
52653;BME280;39353;42.864;12.014;2022-12-24T04:36:19;97559.98;;;19.71;57.29
52653;BME280;39353;42.864;12.014;2022-12-24T04:39:00;97561.79;;;19.70;57.16
52653;BME280;39353;42.864;12.014;2022-12-24T04:41:28;97563.49;;;19.69;57.32
52653;BME280;39353;42.864;12.014;2022-12-24T04:43:58;97559.73;;;19.69;57.36
52653;BME280;39353;42.864;12.014;2022-12-24T04:46:28;97545.58;;;19.69;57.35
52653;BME280;39353;42.864;12.014;2022-12-24T04:49:16;97546.42;;;19.70;57.63
52653;BME280;39353;42.864;12.014;2022-12-24T04:51:46;97562.03;;;19.70;57.69
52653;BME280;39353;42.864;12.014;2022-12-24T04:54:27;97561.91;;;19.69;57.41
52653;BME280;39353;42.864;12.014;2022-12-24T04:57:08;97555.64;;;19.69;57.37
52653;BME280;39353;42.864;12.014;2022-12-24T04:59:35;97559.86;;;19.68;57.28
52653;BME280;39353;42.864;12.014;2022-12-24T05:02:02;97562.75;;;19.68;57.68
52653;BME280;39353;42.864;12.014;2022-12-24T05:04:43;97553.84;;;19.68;57.72
52653;BME280;39353;42.864;12.014;2022-12-24T05:07:24;97564.55;;;19.68;57.62
52653;BME280;39353;42.864;12.014;2022-12-24T05:09:54;97561.70;;;19.68;57.75
52653;BME280;39353;42.864;12.014;2022-12-24T05:12:22;97558.48;;;19.68;57.78
52653;BME280;39353;42.864;12.014;2022-12-24T05:14:51;97558.15;;;19.67;57.55
52653;BME280;39353;42.864;12.014;2022-12-24T05:17:19;97553.38;;;19.67;57.65
52653;BME280;39353;42.864;12.014;2022-12-24T05:19:47;97554.02;;;19.66;57.69
52653;BME280;39353;42.864;12.014;2022-12-24T05:22:15;97560.00;;;19.64;57.75
52653;BME280;39353;42.864;12.014;2022-12-24T05:25:14;97553.30;;;19.63;57.62
52653;BME280;39353;42.864;12.014;2022-12-24T05:28:14;97556.71;;;19.62;57.65
52653;BME280;39353;42.864;12.014;2022-12-24T05:30:59;97567.70;;;19.62;57.67
52653;BME280;39353;42.864;12.014;2022-12-24T05:33:26;97574.46;;;19.61;57.66
52653;BME280;39353;42.864;12.014;2022-12-24T05:36:08;97567.85;;;19.60;57.69
52653;BME280;39353;42.864;12.014;2022-12-24T05:38:50;97553.76;;;19.59;57.71
52653;BME280;39353;42.864;12.014;2022-12-24T05:41:18;97559.66;;;19.58;57.59
52653;BME280;39353;42.864;12.014;2022-12-24T05:43:46;97556.77;;;19.58;57.72
52653;BME280;39353;42.864;12.014;2022-12-24T05:46:16;97547.23;;;19.57;57.64
52653;BME280;39353;42.864;12.014;2022-12-24T05:48:59;97541.07;;;19.57;57.57
52653;BME280;39353;42.864;12.014;2022-12-24T05:51:40;97533.08;;;19.56;57.67
52653;BME280;39353;42.864;12.014;2022-12-24T05:54:23;97529.56;;;19.55;57.68
52653;BME280;39353;42.864;12.014;2022-12-24T05:56:50;97530.20;;;19.55;57.75
52653;BME280;39353;42.864;12.014;2022-12-24T05:59:33;97530.19;;;19.55;57.72
52653;BME280;39353;42.864;12.014;2022-12-24T06:02:00;97536.52;;;19.54;57.68
52653;BME280;39353;42.864;12.014;2022-12-24T06:04:42;97536.94;;;19.53;57.61
52653;BME280;39353;42.864;12.014;2022-12-24T06:07:23;97524.96;;;19.53;57.55
52653;BME280;39353;42.864;12.014;2022-12-24T06:10:05;97519.95;;;19.53;57.65
52653;BME280;39353;42.864;12.014;2022-12-24T06:12:46;97531.84;;;19.52;57.58
52653;BME280;39353;42.864;12.014;2022-12-24T06:15:15;97548.84;;;19.51;57.53
52653;BME280;39353;42.864;12.014;2022-12-24T06:17:43;97557.02;;;19.49;57.47
52653;BME280;39353;42.864;12.014;2022-12-24T06:20:26;97555.17;;;19.49;57.62
52653;BME280;39353;42.864;12.014;2022-12-24T06:23:07;97556.59;;;19.48;57.62
52653;BME280;39353;42.864;12.014;2022-12-24T06:25:49;97545.96;;;19.48;57.56
52653;BME280;39353;42.864;12.014;2022-12-24T06:28:33;97541.83;;;19.48;57.58
52653;BME280;39353;42.864;12.014;2022-12-24T06:31:04;97542.23;;;19.47;57.53
52653;BME280;39353;42.864;12.014;2022-12-24T06:33:33;97537.80;;;19.47;57.52
52653;BME280;39353;42.864;12.014;2022-12-24T06:36:01;97528.98;;;19.46;57.57
52653;BME280;39353;42.864;12.014;2022-12-24T06:38:29;97512.79;;;19.45;57.50
52653;BME280;39353;42.864;12.014;2022-12-24T06:41:11;97506.30;;;19.45;57.76
52653;BME280;39353;42.864;12.014;2022-12-24T06:43:52;97499.40;;;19.44;57.70
52653;BME280;39353;42.864;12.014;2022-12-24T06:46:21;97503.38;;;19.44;57.69
52653;BME280;39353;42.864;12.014;2022-12-24T06:49:02;97517.98;;;19.43;57.58
52653;BME280;39353;42.864;12.014;2022-12-24T06:51:31;97530.76;;;19.41;57.65
52653;BME280;39353;42.864;12.014;2022-12-24T06:53:58;97541.30;;;19.41;57.62
52653;BME280;39353;42.864;12.014;2022-12-24T06:56:25;97536.95;;;19.41;57.57
52653;BME280;39353;42.864;12.014;2022-12-24T06:59:07;97541.44;;;19.40;57.63
52653;BME280;39353;42.864;12.014;2022-12-24T07:01:36;97544.29;;;19.41;57.67
52653;BME280;39353;42.864;12.014;2022-12-24T07:04:18;97550.39;;;19.40;57.57
52653;BME280;39353;42.864;12.014;2022-12-24T07:06:59;97552.98;;;19.39;57.76
52653;BME280;39353;42.864;12.014;2022-12-24T07:09:27;97554.48;;;19.39;57.73
52653;BME280;39353;42.864;12.014;2022-12-24T07:11:55;97559.27;;;19.38;57.74
52653;BME280;39353;42.864;12.014;2022-12-24T07:14:36;97566.48;;;19.38;57.67
52653;BME280;39353;42.864;12.014;2022-12-24T07:17:03;97557.65;;;19.37;57.76
52653;BME280;39353;42.864;12.014;2022-12-24T07:19:31;97557.90;;;19.37;57.77
52653;BME280;39353;42.864;12.014;2022-12-24T07:22:12;97563.89;;;19.37;57.78
52653;BME280;39353;42.864;12.014;2022-12-24T07:24:39;97566.44;;;19.37;57.88
52653;BME280;39353;42.864;12.014;2022-12-24T07:27:20;97563.89;;;19.35;57.83
52653;BME280;39353;42.864;12.014;2022-12-24T07:30:02;97564.94;;;19.36;57.91
52653;BME280;39353;42.864;12.014;2022-12-24T07:32:44;97563.64;;;19.34;57.88
52653;BME280;39353;42.864;12.014;2022-12-24T07:35:12;97562.71;;;19.34;57.96
52653;BME280;39353;42.864;12.014;2022-12-24T07:37:52;97571.48;;;19.33;57.92
52653;BME280;39353;42.864;12.014;2022-12-24T07:40:20;97572.77;;;19.32;57.89
52653;BME280;39353;42.864;12.014;2022-12-24T07:43:01;97570.14;;;19.32;57.90
52653;BME280;39353;42.864;12.014;2022-12-24T07:45:29;97574.79;;;19.31;57.86
52653;BME280;39353;42.864;12.014;2022-12-24T07:47:57;97576.67;;;19.31;57.88
52653;BME280;39353;42.864;12.014;2022-12-24T07:50:39;97576.24;;;19.31;57.85
52653;BME280;39353;42.864;12.014;2022-12-24T07:53:06;97578.69;;;19.29;57.96
52653;BME280;39353;42.864;12.014;2022-12-24T07:55:47;97571.35;;;19.29;58.05
52653;BME280;39353;42.864;12.014;2022-12-24T07:58:28;97578.70;;;19.28;58.12
52653;BME280;39353;42.864;12.014;2022-12-24T08:00:59;97577.06;;;19.27;58.18
52653;BME280;39353;42.864;12.014;2022-12-24T08:03:27;97588.86;;;19.28;58.09
52653;BME280;39353;42.864;12.014;2022-12-24T08:06:08;97583.70;;;19.27;58.19
52653;BME280;39353;42.864;12.014;2022-12-24T08:08:37;97582.00;;;19.28;58.29
52653;BME280;39353;42.864;12.014;2022-12-24T08:11:06;97582.38;;;19.27;58.37
52653;BME280;39353;42.864;12.014;2022-12-24T08:13:48;97586.39;;;19.29;58.41
52653;BME280;39353;42.864;12.014;2022-12-24T08:16:16;97594.59;;;19.30;58.46
52653;BME280;39353;42.864;12.014;2022-12-24T08:18:59;97600.69;;;19.30;58.37
52653;BME280;39353;42.864;12.014;2022-12-24T08:21:29;97604.80;;;19.31;58.45
52653;BME280;39353;42.864;12.014;2022-12-24T08:23:56;97602.58;;;19.31;58.33
52653;BME280;39353;42.864;12.014;2022-12-24T08:26:37;97601.88;;;19.31;58.09
52653;BME280;39353;42.864;12.014;2022-12-24T08:29:05;97602.63;;;19.32;58.16
52653;BME280;39353;42.864;12.014;2022-12-24T08:31:33;97598.44;;;19.32;58.08
52653;BME280;39353;42.864;12.014;2022-12-24T08:34:16;97606.42;;;19.33;58.08
52653;BME280;39353;42.864;12.014;2022-12-24T08:36:43;97613.12;;;19.33;57.95
52653;BME280;39353;42.864;12.014;2022-12-24T08:39:10;97615.08;;;19.33;58.09
52653;BME280;39353;42.864;12.014;2022-12-24T08:41:37;97614.41;;;19.34;58.16
52653;BME280;39353;42.864;12.014;2022-12-24T08:44:18;97627.89;;;19.34;58.20
52653;BME280;39353;42.864;12.014;2022-12-24T08:46:46;97633.16;;;19.34;58.25
52653;BME280;39353;42.864;12.014;2022-12-24T08:49:13;97643.63;;;19.34;58.49
52653;BME280;39353;42.864;12.014;2022-12-24T08:51:56;97647.11;;;19.34;58.40
52653;BME280;39353;42.864;12.014;2022-12-24T08:54:24;97647.15;;;19.34;58.38
52653;BME280;39353;42.864;12.014;2022-12-24T08:57:05;97646.17;;;19.34;58.40
52653;BME280;39353;42.864;12.014;2022-12-24T08:59:46;97643.59;;;19.35;58.28
52653;BME280;39353;42.864;12.014;2022-12-24T09:02:15;97636.86;;;19.34;58.32
52653;BME280;39353;42.864;12.014;2022-12-24T09:04:42;97628.77;;;19.33;58.41
52653;BME280;39353;42.864;12.014;2022-12-24T09:07:23;97627.56;;;19.32;58.28
52653;BME280;39353;42.864;12.014;2022-12-24T09:09:53;97627.90;;;19.33;58.17
52653;BME280;39353;42.864;12.014;2022-12-24T09:12:36;97628.83;;;19.33;58.20
52653;BME280;39353;42.864;12.014;2022-12-24T09:15:17;97637.03;;;19.32;58.21
52653;BME280;39353;42.864;12.014;2022-12-24T09:18:00;97644.27;;;19.31;58.07
52653;BME280;39353;42.864;12.014;2022-12-24T09:20:34;97647.70;;;19.31;58.17
52653;BME280;39353;42.864;12.014;2022-12-24T09:23:16;97661.52;;;19.31;57.95
52653;BME280;39353;42.864;12.014;2022-12-24T09:25:58;97673.48;;;19.31;58.21
52653;BME280;39353;42.864;12.014;2022-12-24T09:28:25;97680.85;;;19.31;58.32
52653;BME280;39353;42.864;12.014;2022-12-24T09:31:02;97679.14;;;19.32;58.22
52653;BME280;39353;42.864;12.014;2022-12-24T09:33:47;97686.38;;;19.33;58.14
52653;BME280;39353;42.864;12.014;2022-12-24T09:36:18;97682.02;;;19.39;58.32
52653;BME280;39353;42.864;12.014;2022-12-24T09:38:46;97686.41;;;19.44;58.52
52653;BME280;39353;42.864;12.014;2022-12-24T09:47:36;97683.84;;;19.47;59.10
52653;BME280;39353;42.864;12.014;2022-12-24T09:53:02;97665.66;;;19.47;58.74
52653;BME280;39353;42.864;12.014;2022-12-24T09:55:45;97668.55;;;19.47;59.12
52653;BME280;39353;42.864;12.014;2022-12-24T09:58:34;97685.29;;;19.48;59.19
52653;BME280;39353;42.864;12.014;2022-12-24T10:01:04;97685.23;;;19.50;59.10
52653;BME280;39353;42.864;12.014;2022-12-24T10:03:35;97682.44;;;19.50;58.90
52653;BME280;39353;42.864;12.014;2022-12-24T10:14:58;97709.14;;;19.56;58.71
52653;BME280;39353;42.864;12.014;2022-12-24T10:18:16;97690.73;;;19.56;58.63
52653;BME280;39353;42.864;12.014;2022-12-24T10:26:49;97690.46;;;19.63;58.64
52653;BME280;39353;42.864;12.014;2022-12-24T10:29:39;97697.07;;;19.65;58.54
52653;BME280;39353;42.864;12.014;2022-12-24T10:37:46;97675.96;;;19.78;58.19
52653;BME280;39353;42.864;12.014;2022-12-24T10:40:39;97669.20;;;19.82;58.09
52653;BME280;39353;42.864;12.014;2022-12-24T10:43:28;97669.27;;;19.86;57.77
52653;BME280;39353;42.864;12.014;2022-12-24T10:46:01;97665.95;;;19.87;57.68
52653;BME280;39353;42.864;12.014;2022-12-24T10:48:41;97663.67;;;19.88;57.59
52653;BME280;39353;42.864;12.014;2022-12-24T10:51:44;97658.20;;;19.88;57.55
52653;BME280;39353;42.864;12.014;2022-12-24T10:54:28;97654.88;;;19.90;57.40
52653;BME280;39353;42.864;12.014;2022-12-24T10:57:01;97644.91;;;19.91;57.24
52653;BME280;39353;42.864;12.014;2022-12-24T10:59:53;97642.05;;;19.92;57.24
52653;BME280;39353;42.864;12.014;2022-12-24T11:02:40;97643.46;;;19.93;57.37
52653;BME280;39353;42.864;12.014;2022-12-24T11:05:28;97639.70;;;19.95;57.06
52653;BME280;39353;42.864;12.014;2022-12-24T11:10:54;97634.60;;;19.92;57.04
52653;BME280;39353;42.864;12.014;2022-12-24T11:13:40;97633.92;;;19.92;56.95
52653;BME280;39353;42.864;12.014;2022-12-24T11:16:20;97635.27;;;19.92;57.06
52653;BME280;39353;42.864;12.014;2022-12-24T11:18:52;97631.10;;;19.95;56.99
52653;BME280;39353;42.864;12.014;2022-12-24T11:21:41;97623.94;;;19.94;56.86
52653;BME280;39353;42.864;12.014;2022-12-24T11:26:52;97626.81;;;19.98;56.88
52653;BME280;39353;42.864;12.014;2022-12-24T11:29:35;97628.57;;;20.05;57.32
52653;BME280;39353;42.864;12.014;2022-12-24T11:32:22;97631.86;;;20.11;57.17
52653;BME280;39353;42.864;12.014;2022-12-24T11:35:22;97632.38;;;20.15;57.58
52653;BME280;39353;42.864;12.014;2022-12-24T11:43:06;97639.30;;;20.33;58.31
52653;BME280;39353;42.864;12.014;2022-12-24T11:45:51;97640.20;;;20.37;59.12
52653;BME280;39353;42.864;12.014;2022-12-24T11:48:33;97635.24;;;20.39;60.65
52653;BME280;39353;42.864;12.014;2022-12-24T11:57:21;97641.72;;;20.44;61.31
52653;BME280;39353;42.864;12.014;2022-12-24T12:00:09;97642.58;;;20.49;61.54
52653;BME280;39353;42.864;12.014;2022-12-24T12:02:41;97642.69;;;20.54;61.93
52653;BME280;39353;42.864;12.014;2022-12-24T12:05:31;97635.85;;;20.62;62.75
52653;BME280;39353;42.864;12.014;2022-12-24T12:08:17;97638.02;;;20.70;62.98
52653;BME280;39353;42.864;12.014;2022-12-24T12:10:50;97632.45;;;20.74;63.40
52653;BME280;39353;42.864;12.014;2022-12-24T12:13:28;97631.19;;;20.78;63.09
52653;BME280;39353;42.864;12.014;2022-12-24T12:16:20;97632.91;;;20.81;63.68
52653;BME280;39353;42.864;12.014;2022-12-24T12:19:08;97632.97;;;20.86;64.67
52653;BME280;39353;42.864;12.014;2022-12-24T12:21:45;97635.40;;;20.90;65.48
52653;BME280;39353;42.864;12.014;2022-12-24T12:24:52;97633.94;;;20.94;65.28
52653;BME280;39353;42.864;12.014;2022-12-24T12:36:38;97633.17;;;21.08;65.30
52653;BME280;39353;42.864;12.014;2022-12-24T12:39:09;97635.88;;;21.06;64.73
52653;BME280;39353;42.864;12.014;2022-12-24T12:51:12;97638.30;;;20.93;62.92
52653;BME280;39353;42.864;12.014;2022-12-24T12:56:35;97637.44;;;20.91;62.05
52653;BME280;39353;42.864;12.014;2022-12-24T12:59:34;97633.59;;;20.90;61.71
52653;BME280;39353;42.864;12.014;2022-12-24T13:19:22;97628.43;;;20.72;59.99
52653;BME280;39353;42.864;12.014;2022-12-24T13:21:55;97627.96;;;20.67;60.28
52653;BME280;39353;42.864;12.014;2022-12-24T13:24:26;97627.48;;;20.64;60.28
52653;BME280;39353;42.864;12.014;2022-12-24T13:27:24;97632.85;;;20.65;60.30
52653;BME280;39353;42.864;12.014;2022-12-24T13:30:39;97636.63;;;20.64;60.22
52653;BME280;39353;42.864;12.014;2022-12-24T13:33:11;97632.79;;;20.61;60.16
52653;BME280;39353;42.864;12.014;2022-12-24T13:35:59;97630.58;;;20.61;59.94
52653;BME280;39353;42.864;12.014;2022-12-24T13:44:20;97628.84;;;20.55;59.71
52653;BME280;39353;42.864;12.014;2022-12-24T13:47:15;97630.52;;;20.54;59.95
52653;BME280;39353;42.864;12.014;2022-12-24T13:50:19;97627.38;;;20.53;59.70
52653;BME280;39353;42.864;12.014;2022-12-24T13:53:05;97630.64;;;20.51;59.58
52653;BME280;39353;42.864;12.014;2022-12-24T13:55:55;97631.11;;;20.50;59.79
52653;BME280;39353;42.864;12.014;2022-12-24T13:58:24;97634.09;;;20.50;59.56
52653;BME280;39353;42.864;12.014;2022-12-24T14:01:11;97634.80;;;20.45;58.41
52653;BME280;39353;42.864;12.014;2022-12-24T14:03:51;97632.83;;;20.42;59.02
52653;BME280;39353;42.864;12.014;2022-12-24T14:06:39;97638.66;;;20.43;59.23
52653;BME280;39353;42.864;12.014;2022-12-24T14:09:24;97634.78;;;20.45;59.29
52653;BME280;39353;42.864;12.014;2022-12-24T14:14:32;97635.36;;;20.33;56.40
52653;BME280;39353;42.864;12.014;2022-12-24T14:17:24;97636.06;;;20.23;57.26
52653;BME280;39353;42.864;12.014;2022-12-24T14:20:00;97638.48;;;20.18;57.08
52653;BME280;39353;42.864;12.014;2022-12-24T14:22:50;97640.02;;;20.19;58.02
52653;BME280;39353;42.864;12.014;2022-12-24T14:25:32;97636.65;;;20.23;58.21
52653;BME280;39353;42.864;12.014;2022-12-24T14:28:05;97633.70;;;20.26;58.74
52653;BME280;39353;42.864;12.014;2022-12-24T14:30:38;97631.66;;;20.29;58.63
52653;BME280;39353;42.864;12.014;2022-12-24T14:33:34;97641.22;;;20.32;58.85
52653;BME280;39353;42.864;12.014;2022-12-24T14:36:22;97641.95;;;20.34;58.58
52653;BME280;39353;42.864;12.014;2022-12-24T14:39:08;97645.38;;;20.35;58.74
52653;BME280;39353;42.864;12.014;2022-12-24T14:55:49;97645.94;;;20.17;56.69
52653;BME280;39353;42.864;12.014;2022-12-24T14:58:35;97647.00;;;20.16;57.75
52653;BME280;39353;42.864;12.014;2022-12-24T15:01:28;97655.45;;;20.20;57.93
52653;BME280;39353;42.864;12.014;2022-12-24T15:06:54;97658.96;;;20.19;58.12
52653;BME280;39353;42.864;12.014;2022-12-24T15:09:37;97656.45;;;20.20;58.10
52653;BME280;39353;42.864;12.014;2022-12-24T15:12:11;97662.02;;;20.20;58.11
52653;BME280;39353;42.864;12.014;2022-12-24T15:14:54;97665.04;;;20.21;58.04
52653;BME280;39353;42.864;12.014;2022-12-24T15:17:24;97661.21;;;20.21;57.93
52653;BME280;39353;42.864;12.014;2022-12-24T15:19:53;97663.27;;;20.21;57.85
52653;BME280;39353;42.864;12.014;2022-12-24T15:22:36;97667.40;;;20.20;58.08
52653;BME280;39353;42.864;12.014;2022-12-24T15:25:27;97668.70;;;20.20;58.23
52653;BME280;39353;42.864;12.014;2022-12-24T15:27:57;97678.30;;;20.20;58.17
52653;BME280;39353;42.864;12.014;2022-12-24T15:30:38;97685.62;;;20.22;58.16
52653;BME280;39353;42.864;12.014;2022-12-24T15:33:19;97693.58;;;20.24;58.10
52653;BME280;39353;42.864;12.014;2022-12-24T15:35:52;97689.93;;;20.22;58.21
52653;BME280;39353;42.864;12.014;2022-12-24T15:38:38;97690.60;;;20.23;58.24
52653;BME280;39353;42.864;12.014;2022-12-24T15:41:17;97696.80;;;20.22;58.31
52653;BME280;39353;42.864;12.014;2022-12-24T15:43:48;97701.00;;;20.22;58.28
52653;BME280;39353;42.864;12.014;2022-12-24T15:46:29;97705.05;;;20.23;58.25
52653;BME280;39353;42.864;12.014;2022-12-24T15:49:16;97707.11;;;20.23;58.07
52653;BME280;39353;42.864;12.014;2022-12-24T15:52:08;97707.58;;;20.23;58.19
52653;BME280;39353;42.864;12.014;2022-12-24T15:54:36;97710.75;;;20.24;58.01
52653;BME280;39353;42.864;12.014;2022-12-24T15:57:28;97712.90;;;20.25;58.00
52653;BME280;39353;42.864;12.014;2022-12-24T16:00:21;97719.65;;;20.24;57.91